Laughlin Air Force Base
KDLF : now visible

Airfield :











YOU CAN JOIN US ON...

 
LOGIN :

Register | Disclaimer

   EN    FR    IT 

 









Legend :    VFR   Marginal VFR   IFR   Intensive IFR   Very Intensive IFR
Visi :
Ceiling :
>= 8 km
>= 3000ft
5 to 8 km
1000 to 3000 ft
1500m to 5 km
500 to 1000 ft
800 to 1500m
200 to 500 ft
< 800m
< 200 ft
Symbols :   Thunderstorms  Fog  Heavy snow  Heavy precipitations  Wind > 20 kt






- Airport Elevation : 1082 ft


KDLF - Laughlin Air Force Base

CURRENT METAR :
  • 080756Z AUTO 11006KT 10SM CLR 09/04 A3008 RMK AO2 SLP182 T00880038 $

EXPIRED METARs :
  • 080656Z AUTO 08004KT 10SM CLR 10/04 A3009 RMK AO2 SLP186 T00950041 $
  • 080556Z AUTO 13006KT 10SM CLR 10/04 A3011 RMK AO2 SLP193 T01010040 10112 20101 402150045 $
  • 080456Z AUTO 15004KT 10SM CLR 11/04 A3012 RMK AO2 SLP197 T01140044 $

Expired Forecast.



MET'MAP, your aeronautical weather chart ! - Copyright ORBIFLY December 2007 - Disclaimer

ORBIFLY MET'MAP TEAM :

Programming & Development : Alexandra Zaïnal
Concept & original design : Baudouin d'Aumeries
Assistance for programming : Marc-Olivier Méhu
Technical & hardware support : Manuel Goepfert

Contact : metmap@orbifly.com




SOURCES & CREDITS :

   NOAA       Earth
Advisory